createdAt,value
2019-02-09T00:00:54.737Z,7.80
2019-02-09T00:03:22.129Z,7.80
2019-02-09T00:05:49.487Z,7.90
2019-02-09T00:08:17.052Z,7.90
2019-02-09T00:10:44.420Z,7.80
2019-02-09T00:13:12.257Z,7.90
2019-02-09T00:15:40.327Z,7.90
2019-02-09T00:18:07.859Z,7.80
2019-02-09T00:20:35.349Z,7.80
2019-02-09T00:23:04.444Z,7.80
2019-02-09T00:25:32.806Z,7.80
2019-02-09T00:28:00.634Z,7.80
2019-02-09T00:30:28.838Z,7.70
2019-02-09T00:32:56.287Z,7.70
2019-02-09T00:35:23.796Z,7.80
2019-02-09T00:37:51.029Z,7.80
2019-02-09T00:40:18.693Z,7.80
2019-02-09T00:42:46.126Z,7.80
2019-02-09T00:45:16.001Z,7.70
2019-02-09T00:47:43.647Z,7.70
2019-02-09T00:50:12.499Z,7.60
2019-02-09T00:52:40.011Z,7.50
2019-02-09T00:55:09.037Z,7.60
2019-02-09T00:57:36.858Z,7.50
2019-02-09T01:00:15.424Z,7.60
2019-02-09T01:02:42.849Z,7.60
2019-02-09T01:05:12.667Z,7.50
2019-02-09T01:07:40.510Z,7.40
2019-02-09T01:10:10.694Z,7.40
2019-02-09T01:12:38.838Z,7.30
2019-02-09T01:15:10.327Z,7.30
2019-02-09T01:17:38.429Z,7.30
2019-02-09T01:20:09.732Z,7.20
2019-02-09T01:22:37.093Z,7.20
2019-02-09T01:25:05.638Z,7.10
2019-02-09T01:27:32.860Z,7.00
2019-02-09T01:30:02.357Z,6.80
2019-02-09T01:32:29.868Z,6.70
2019-02-09T01:34:57.427Z,6.60
2019-02-09T01:37:25.436Z,6.50
2019-02-09T01:39:53.333Z,6.50
2019-02-09T01:42:24.488Z,6.50
2019-02-09T01:44:52.083Z,6.40
2019-02-09T01:47:19.688Z,6.30
2019-02-09T01:49:47.361Z,6.30
2019-02-09T01:52:15.030Z,6.20
2019-02-09T01:54:43.099Z,6.10
2019-02-09T01:57:10.582Z,6.20
2019-02-09T01:59:38.230Z,6.10
2019-02-09T02:02:06.095Z,6.00
2019-02-09T02:04:34.003Z,5.90
2019-02-09T02:07:01.218Z,5.90
2019-02-09T02:09:28.540Z,5.90
2019-02-09T02:11:56.383Z,5.80
2019-02-09T02:14:23.865Z,5.80
2019-02-09T02:16:51.923Z,5.70
2019-02-09T02:19:19.552Z,5.60
2019-02-09T02:21:47.571Z,5.60
2019-02-09T02:24:15.275Z,5.60
2019-02-09T02:26:42.671Z,5.50
2019-02-09T02:29:10.457Z,5.60
2019-02-09T02:31:38.199Z,5.50
2019-02-09T02:34:05.899Z,5.50
2019-02-09T02:36:33.797Z,5.40
2019-02-09T02:39:01.320Z,5.50
2019-02-09T02:41:28.839Z,5.50
2019-02-09T02:43:56.588Z,5.40
2019-02-09T02:46:27.816Z,5.50
2019-02-09T02:48:55.094Z,5.50
2019-02-09T02:51:22.364Z,5.50
2019-02-09T02:53:50.171Z,5.50
2019-02-09T02:56:18.041Z,5.50
2019-02-09T02:58:45.887Z,5.50
2019-02-09T03:01:14.291Z,5.50
2019-02-09T03:03:42.121Z,5.50
2019-02-09T03:06:09.492Z,5.60
2019-02-09T03:08:36.769Z,5.70
2019-02-09T03:11:04.422Z,5.60
2019-02-09T03:13:31.815Z,5.70
2019-02-09T03:15:59.528Z,5.80
2019-02-09T03:18:27.361Z,5.80
2019-02-09T03:20:54.765Z,5.80
2019-02-09T03:23:22.042Z,5.80
2019-02-09T03:25:49.905Z,5.80
2019-02-09T03:28:17.308Z,5.80
2019-02-09T03:30:48.192Z,5.80
2019-02-09T03:33:14.307Z,5.70
2019-02-09T03:35:42.383Z,5.80
2019-02-09T03:38:09.598Z,5.80
2019-02-09T03:40:37.369Z,5.80
2019-02-09T03:43:04.877Z,5.80
2019-02-09T03:45:32.585Z,5.80
2019-02-09T03:48:00.799Z,5.90
2019-02-09T03:50:30.686Z,5.80
2019-02-09T03:52:58.784Z,5.90
2019-02-09T03:55:26.769Z,5.90
2019-02-09T03:57:54.691Z,5.90
2019-02-09T04:00:24.814Z,5.90
2019-02-09T04:02:52.501Z,6.00
2019-02-09T04:05:20.559Z,6.00
2019-02-09T04:07:48.101Z,6.00
2019-02-09T04:10:21.477Z,6.00
2019-02-09T04:12:49.550Z,6.00
2019-02-09T04:15:19.650Z,5.90
2019-02-09T04:17:46.998Z,5.90
2019-02-09T04:20:16.093Z,5.90
2019-02-09T04:22:43.891Z,5.90
2019-02-09T04:25:13.097Z,5.90
2019-02-09T04:27:41.272Z,6.00
2019-02-09T04:30:34.632Z,5.90
2019-02-09T04:33:01.993Z,5.90
2019-02-09T04:35:29.624Z,5.90
2019-02-09T04:37:57.127Z,6.00
2019-02-09T04:40:28.397Z,6.00
2019-02-09T04:42:55.844Z,6.00
2019-02-09T04:45:23.566Z,6.00
2019-02-09T04:47:51.630Z,6.00
2019-02-09T04:50:20.300Z,6.00
2019-02-09T04:52:48.002Z,6.00
2019-02-09T04:55:18.375Z,6.00
2019-02-09T04:57:45.998Z,6.00
2019-02-09T05:00:17.431Z,6.00
2019-02-09T05:02:45.120Z,6.00
2019-02-09T05:05:13.043Z,6.00
2019-02-09T05:07:40.256Z,6.00
2019-02-09T05:10:09.528Z,6.00
2019-02-09T05:12:36.947Z,6.10
2019-02-09T05:15:06.861Z,6.10
2019-02-09T05:17:34.961Z,6.10
2019-02-09T05:20:04.582Z,6.20
2019-02-09T05:22:32.044Z,6.20
2019-02-09T05:24:59.873Z,6.20
2019-02-09T05:27:27.177Z,6.20
2019-02-09T05:29:54.401Z,6.20
2019-02-09T05:32:22.156Z,6.30
2019-02-09T05:34:49.994Z,6.20
2019-02-09T05:37:18.194Z,6.20
2019-02-09T05:39:45.875Z,6.20
2019-02-09T05:42:13.723Z,6.20
2019-02-09T05:44:41.445Z,6.10
2019-02-09T05:47:08.933Z,6.10
2019-02-09T05:49:36.560Z,6.10
2019-02-09T05:52:04.466Z,6.10
2019-02-09T05:54:31.612Z,6.10
2019-02-09T05:56:59.247Z,6.10
2019-02-09T05:59:26.754Z,6.10
2019-02-09T06:01:54.316Z,6.10
2019-02-09T06:04:22.293Z,6.10
2019-02-09T06:06:49.545Z,6.10
2019-02-09T06:09:17.133Z,6.20
2019-02-09T06:11:44.661Z,6.10
2019-02-09T06:14:12.345Z,6.10
2019-02-09T06:16:39.959Z,6.10
2019-02-09T06:19:07.311Z,6.20
2019-02-09T06:21:35.142Z,6.20
2019-02-09T06:24:03.689Z,6.30
2019-02-09T06:26:31.063Z,6.20
2019-02-09T06:28:58.580Z,6.20
2019-02-09T06:31:27.043Z,6.20
2019-02-09T06:33:54.416Z,6.20
2019-02-09T06:36:22.172Z,6.20
2019-02-09T06:38:49.948Z,6.20
2019-02-09T06:41:17.651Z,6.20
2019-02-09T06:43:45.407Z,6.20
2019-02-09T06:46:13.254Z,6.20
2019-02-09T06:48:40.676Z,6.20
2019-02-09T06:51:08.009Z,6.20
2019-02-09T06:53:35.786Z,6.20
2019-02-09T06:56:03.790Z,6.20
2019-02-09T06:58:31.422Z,6.30
2019-02-09T07:00:58.926Z,6.30
2019-02-09T07:03:26.410Z,6.20
2019-02-09T07:05:54.571Z,6.20
2019-02-09T07:08:22.466Z,6.20
2019-02-09T07:10:50.033Z,6.20
2019-02-09T07:13:17.552Z,6.20
2019-02-09T07:15:45.623Z,6.10
2019-02-09T07:18:13.600Z,6.10
2019-02-09T07:20:41.070Z,6.20
2019-02-09T07:23:09.001Z,6.20
2019-02-09T07:25:36.814Z,6.20
2019-02-09T07:28:05.087Z,6.20
2019-02-09T07:30:32.754Z,6.30
2019-02-09T07:33:00.911Z,6.20
2019-02-09T07:35:28.508Z,6.20
2019-02-09T07:37:56.238Z,6.20
2019-02-09T07:40:24.306Z,6.20
2019-02-09T07:42:53.039Z,6.20
2019-02-09T07:45:23.196Z,6.20
2019-02-09T07:47:51.290Z,6.20
2019-02-09T07:50:20.050Z,6.20
2019-02-09T07:52:51.940Z,6.30
2019-02-09T07:55:20.042Z,6.30
2019-02-09T07:57:47.532Z,6.40
2019-02-09T08:00:18.473Z,6.70
2019-02-09T08:02:45.892Z,6.90
2019-02-09T08:05:13.962Z,7.00
2019-02-09T08:07:41.668Z,7.00
2019-02-09T08:10:12.881Z,7.00
2019-02-09T08:12:40.761Z,7.10
2019-02-09T08:15:16.102Z,7.20
2019-02-09T08:17:44.386Z,7.40
2019-02-09T08:20:13.747Z,7.50
2019-02-09T08:22:41.986Z,7.60
2019-02-09T08:25:13.015Z,7.90
2019-02-09T08:27:40.762Z,8.00
2019-02-09T08:30:11.354Z,8.10
2019-02-09T08:32:39.274Z,8.30
2019-02-09T08:35:07.566Z,8.40
2019-02-09T08:37:34.883Z,8.70
2019-02-09T08:40:02.727Z,8.80
2019-02-09T08:42:30.229Z,9.10
2019-02-09T08:44:57.990Z,9.20
2019-02-09T08:47:25.546Z,8.90
2019-02-09T08:49:53.115Z,8.70
2019-02-09T08:52:21.146Z,8.50
2019-02-09T08:54:49.106Z,8.50
2019-02-09T08:57:16.726Z,8.40
2019-02-09T08:59:44.404Z,8.40
2019-02-09T09:02:12.225Z,8.40
2019-02-09T09:04:39.617Z,8.30
2019-02-09T09:07:07.090Z,8.40
2019-02-09T09:09:37.402Z,8.30
2019-02-09T09:12:05.211Z,8.20
2019-02-09T09:14:33.177Z,8.40
2019-02-09T09:17:00.801Z,8.40
2019-02-09T09:19:28.561Z,8.50
2019-02-09T09:21:55.684Z,8.60
2019-02-09T09:24:23.386Z,8.40
2019-02-09T09:26:51.172Z,8.40
2019-02-09T09:29:18.895Z,8.60
2019-02-09T09:31:46.091Z,8.70
2019-02-09T09:34:13.551Z,8.80
2019-02-09T09:36:40.874Z,8.80
2019-02-09T09:39:08.946Z,8.90
2019-02-09T09:41:36.665Z,8.80
2019-02-09T09:44:04.559Z,8.90
2019-02-09T09:46:31.858Z,9.00
2019-02-09T09:48:59.276Z,9.20
2019-02-09T09:51:27.003Z,9.10
2019-02-09T09:53:54.785Z,9.30
2019-02-09T09:56:22.312Z,9.40
2019-02-09T09:58:49.609Z,9.40
2019-02-09T10:01:16.861Z,9.40
2019-02-09T10:03:44.495Z,9.40
2019-02-09T10:06:11.846Z,9.60
2019-02-09T10:08:39.829Z,9.50
2019-02-09T10:11:07.655Z,9.70
2019-02-09T10:13:35.504Z,9.70
2019-02-09T10:16:03.540Z,9.70
2019-02-09T10:18:31.413Z,9.50
2019-02-09T10:20:59.626Z,9.60
2019-02-09T10:23:27.616Z,9.70
2019-02-09T10:25:55.386Z,9.90
2019-02-09T10:28:23.220Z,10.30
2019-02-09T10:30:50.616Z,10.20
2019-02-09T10:33:18.213Z,10.40
2019-02-09T10:35:45.720Z,10.30
2019-02-09T10:38:13.626Z,10.70
2019-02-09T10:40:40.923Z,10.70
2019-02-09T10:43:08.656Z,10.60
2019-02-09T10:45:36.751Z,10.70
2019-02-09T10:48:05.362Z,11.20
2019-02-09T10:50:39.654Z,11.20
2019-02-09T10:53:07.612Z,11.00
2019-02-09T10:55:35.381Z,11.30
2019-02-09T10:58:05.742Z,11.50
2019-02-09T11:00:47.069Z,11.50
2019-02-09T11:03:15.291Z,11.60
2019-02-09T11:05:43.042Z,11.30
2019-02-09T11:08:10.805Z,11.00
2019-02-09T11:10:38.518Z,10.70
2019-02-09T11:13:06.659Z,10.40
2019-02-09T11:15:34.312Z,10.50
2019-02-09T11:18:01.677Z,10.40
2019-02-09T11:20:29.661Z,10.40
2019-02-09T11:22:57.477Z,10.60
2019-02-09T11:25:25.292Z,10.50
2019-02-09T11:27:53.439Z,10.10
2019-02-09T11:30:21.339Z,10.30
2019-02-09T11:32:49.538Z,10.30
2019-02-09T11:35:17.606Z,10.30
2019-02-09T11:37:45.404Z,10.30
2019-02-09T11:40:14.773Z,10.60
2019-02-09T11:42:42.825Z,10.40
2019-02-09T11:45:16.062Z,10.60
2019-02-09T11:47:43.310Z,10.60
2019-02-09T11:50:11.340Z,10.80
2019-02-09T11:52:38.803Z,10.70
2019-02-09T11:55:06.878Z,10.50
2019-02-09T11:57:34.260Z,10.70
2019-02-09T12:00:02.420Z,10.70
2019-02-09T12:02:30.018Z,10.70
2019-02-09T12:04:57.526Z,10.80
2019-02-09T12:07:25.043Z,10.90
2019-02-09T12:09:52.697Z,10.90
2019-02-09T12:12:20.524Z,11.00
2019-02-09T12:14:48.083Z,10.90
2019-02-09T12:17:15.681Z,10.80
2019-02-09T12:19:43.308Z,10.90
2019-02-09T12:22:10.875Z,10.90
2019-02-09T12:24:38.506Z,11.20
2019-02-09T12:27:06.184Z,11.10
2019-02-09T12:29:33.877Z,11.10
2019-02-09T12:32:01.407Z,10.90
2019-02-09T12:34:29.211Z,10.80
2019-02-09T12:36:56.778Z,10.90
2019-02-09T12:39:24.642Z,10.80
2019-02-09T12:41:55.169Z,10.80
2019-02-09T12:44:22.866Z,10.60
2019-02-09T12:46:50.224Z,10.60
2019-02-09T12:49:17.375Z,10.80
2019-02-09T12:51:44.831Z,11.10
2019-02-09T12:54:12.096Z,10.90
2019-02-09T12:56:39.484Z,10.60
2019-02-09T12:59:14.614Z,10.80
2019-02-09T13:01:37.244Z,10.90
2019-02-09T13:04:04.845Z,10.80
2019-02-09T13:06:32.643Z,10.40
2019-02-09T13:08:59.854Z,10.80
2019-02-09T13:11:27.228Z,10.90
2019-02-09T13:13:54.583Z,10.70
2019-02-09T13:16:22.532Z,10.80
2019-02-09T13:18:50.241Z,10.80
2019-02-09T13:21:17.889Z,10.40
2019-02-09T13:23:48.222Z,10.40
2019-02-09T13:26:15.831Z,10.60
2019-02-09T13:28:43.869Z,10.70
2019-02-09T13:31:11.146Z,10.30
2019-02-09T13:33:39.274Z,10.40
2019-02-09T13:36:07.040Z,10.20
2019-02-09T13:38:34.773Z,10.20
2019-02-09T13:41:02.324Z,10.40
2019-02-09T13:43:29.554Z,10.20
2019-02-09T13:45:57.116Z,10.20
2019-02-09T13:48:24.889Z,10.20
2019-02-09T13:50:52.502Z,10.30
2019-02-09T13:53:20.114Z,10.20
2019-02-09T13:55:47.941Z,10.20
2019-02-09T13:58:16.121Z,10.10
2019-02-09T14:00:44.031Z,10.20
2019-02-09T14:03:11.709Z,10.20
2019-02-09T14:05:39.726Z,10.30
2019-02-09T14:08:08.012Z,10.40
2019-02-09T14:10:35.656Z,10.10
2019-02-09T14:13:03.426Z,10.30
2019-02-09T14:15:32.290Z,10.20
2019-02-09T14:18:01.882Z,10.30
2019-02-09T14:20:29.848Z,10.20
2019-02-09T14:22:57.368Z,10.20
2019-02-09T14:25:25.465Z,10.10
2019-02-09T14:27:56.665Z,10.20
2019-02-09T14:30:25.527Z,10.20
2019-02-09T14:32:53.637Z,10.00
2019-02-09T14:35:22.042Z,10.20
2019-02-09T14:37:51.079Z,10.20
2019-02-09T14:40:21.545Z,10.10
2019-02-09T14:42:50.005Z,10.10
2019-02-09T14:45:21.962Z,10.10
2019-02-09T14:47:49.795Z,10.00
2019-02-09T14:50:17.759Z,10.10
2019-02-09T14:52:45.446Z,10.00
2019-02-09T14:55:21.955Z,10.00
2019-02-09T14:57:49.561Z,9.90
2019-02-09T15:00:20.153Z,10.00
2019-02-09T15:02:53.726Z,10.00
2019-02-09T15:05:18.178Z,9.90
2019-02-09T15:07:45.736Z,9.80
2019-02-09T15:10:15.892Z,9.80
2019-02-09T15:12:43.951Z,9.70
2019-02-09T15:15:22.264Z,9.60
2019-02-09T15:17:50.611Z,9.60
2019-02-09T15:20:21.548Z,9.70
2019-02-09T15:22:49.766Z,9.60
2019-02-09T15:25:17.202Z,9.50
2019-02-09T15:27:44.839Z,9.50
2019-02-09T15:30:21.311Z,9.50
2019-02-09T15:32:49.086Z,9.40
2019-02-09T15:35:16.793Z,9.60
2019-02-09T15:37:44.951Z,9.40
2019-02-09T15:40:16.319Z,9.50
2019-02-09T15:42:44.070Z,9.30
2019-02-09T15:45:13.597Z,9.30
2019-02-09T15:47:40.941Z,9.30
2019-02-09T15:50:10.067Z,9.30
2019-02-09T15:52:37.438Z,9.30
2019-02-09T15:55:07.206Z,9.40
2019-02-09T15:57:34.987Z,9.30
2019-02-09T16:00:05.216Z,9.30
2019-02-09T16:02:32.465Z,9.10
2019-02-09T16:05:00.211Z,9.00
2019-02-09T16:07:27.819Z,8.90
2019-02-09T16:09:55.452Z,8.90
2019-02-09T16:12:27.180Z,8.70
2019-02-09T16:14:55.285Z,8.60
2019-02-09T16:17:22.940Z,8.50
2019-02-09T16:19:50.617Z,8.40
2019-02-09T16:22:18.346Z,8.30
2019-02-09T16:24:45.669Z,8.40
2019-02-09T16:27:13.685Z,8.20
2019-02-09T16:29:41.562Z,8.20
2019-02-09T16:32:09.718Z,8.10
2019-02-09T16:34:37.721Z,8.00
2019-02-09T16:37:05.385Z,8.00
2019-02-09T16:39:32.695Z,8.00
2019-02-09T16:42:00.929Z,7.90
2019-02-09T16:44:28.841Z,7.90
2019-02-09T16:46:56.343Z,7.90
2019-02-09T16:49:24.562Z,8.00
2019-02-09T16:51:52.048Z,7.90
2019-02-09T16:54:20.596Z,8.10
2019-02-09T16:56:49.046Z,8.00
2019-02-09T16:59:17.105Z,8.00
2019-02-09T17:01:44.751Z,7.90
2019-02-09T17:04:12.543Z,7.90
2019-02-09T17:06:40.424Z,7.90
2019-02-09T17:09:09.149Z,7.90
2019-02-09T17:11:36.658Z,7.90
2019-02-09T17:14:04.456Z,8.00
2019-02-09T17:16:31.741Z,8.00
2019-02-09T17:18:59.336Z,8.00
2019-02-09T17:21:27.497Z,7.90
2019-02-09T17:23:54.858Z,7.90
2019-02-09T17:26:22.567Z,7.90
2019-02-09T17:28:50.114Z,7.90
2019-02-09T17:31:17.741Z,7.90
2019-02-09T17:33:45.366Z,7.90
2019-02-09T17:36:13.348Z,7.90
2019-02-09T17:38:40.942Z,8.00
2019-02-09T17:41:08.644Z,7.80
2019-02-09T17:43:36.328Z,7.80
2019-02-09T17:46:11.921Z,7.90
2019-02-09T17:48:39.640Z,7.80
2019-02-09T17:51:07.715Z,7.80
2019-02-09T17:53:35.354Z,7.80
2019-02-09T17:56:03.021Z,7.70
2019-02-09T17:58:30.875Z,7.80
2019-02-09T18:01:04.594Z,7.70
2019-02-09T18:03:32.321Z,7.70
2019-02-09T18:06:01.055Z,7.70
2019-02-09T18:08:28.759Z,7.70
2019-02-09T18:10:56.468Z,7.70
2019-02-09T18:13:23.834Z,7.60
2019-02-09T18:15:51.342Z,7.60
2019-02-09T18:18:19.043Z,7.60
2019-02-09T18:20:46.583Z,7.70
2019-02-09T18:23:14.237Z,7.70
2019-02-09T18:25:41.946Z,7.70
2019-02-09T18:28:09.795Z,7.80
2019-02-09T18:30:37.741Z,7.70
2019-02-09T18:33:05.353Z,7.70
2019-02-09T18:35:32.819Z,7.70
2019-02-09T18:38:00.302Z,7.70
2019-02-09T18:40:28.361Z,7.60
2019-02-09T18:42:56.648Z,7.60
2019-02-09T18:45:26.380Z,7.60
2019-02-09T18:47:54.135Z,7.50
2019-02-09T18:50:24.174Z,7.50
2019-02-09T18:52:51.975Z,7.40
2019-02-09T18:55:21.387Z,7.40
2019-02-09T18:57:48.863Z,7.30
2019-02-09T19:00:22.068Z,7.30
2019-02-09T19:02:49.614Z,7.40
2019-02-09T19:05:17.617Z,7.40
2019-02-09T19:07:46.179Z,7.40
2019-02-09T19:10:20.824Z,7.30
2019-02-09T19:12:49.054Z,7.30
2019-02-09T19:15:17.923Z,7.30
2019-02-09T19:17:45.623Z,7.30
2019-02-09T19:20:17.385Z,7.30
2019-02-09T19:22:45.387Z,7.20
2019-02-09T19:25:13.626Z,7.20
2019-02-09T19:27:41.277Z,7.20
2019-02-09T19:30:16.595Z,7.10
2019-02-09T19:32:43.919Z,7.10
2019-02-09T19:35:12.222Z,7.30
2019-02-09T19:37:39.959Z,7.20
2019-02-09T19:40:09.277Z,7.30
2019-02-09T19:42:36.571Z,7.30
2019-02-09T19:45:07.967Z,7.30
2019-02-09T19:47:35.512Z,7.40
2019-02-09T19:50:05.151Z,7.50
2019-02-09T19:52:32.947Z,7.40
2019-02-09T19:55:00.517Z,7.50
2019-02-09T19:57:27.867Z,7.50
2019-02-09T19:59:55.838Z,7.60
2019-02-09T20:02:23.457Z,7.60
2019-02-09T20:04:51.037Z,7.60
2019-02-09T20:07:18.780Z,7.60
2019-02-09T20:09:46.313Z,7.60
2019-02-09T20:12:14.522Z,7.70
2019-02-09T20:14:42.220Z,7.70
2019-02-09T20:17:10.076Z,7.60
2019-02-09T20:19:37.610Z,7.60
2019-02-09T20:22:05.101Z,7.60
2019-02-09T20:24:32.574Z,7.60
2019-02-09T20:27:00.674Z,7.50
2019-02-09T20:29:31.129Z,7.50
2019-02-09T20:31:58.546Z,7.40
2019-02-09T20:34:27.979Z,7.30
2019-02-09T20:36:55.636Z,7.30
2019-02-09T20:39:22.873Z,7.30
2019-02-09T20:41:50.498Z,7.20
2019-02-09T20:44:18.749Z,7.20
2019-02-09T20:46:46.165Z,7.10
2019-02-09T20:49:14.471Z,7.10
2019-02-09T20:51:42.476Z,7.00
2019-02-09T20:54:10.792Z,6.90
2019-02-09T20:56:38.210Z,6.90
2019-02-09T20:59:14.151Z,6.90
2019-02-09T21:01:44.373Z,6.80
2019-02-09T21:04:17.816Z,6.80
2019-02-09T21:06:45.278Z,6.80
2019-02-09T21:09:14.436Z,6.70
2019-02-09T21:11:43.015Z,6.50
2019-02-09T21:14:10.576Z,6.40
2019-02-09T21:16:39.303Z,6.30
2019-02-09T21:19:07.073Z,6.20
2019-02-09T21:21:35.160Z,6.10
2019-02-09T21:24:03.165Z,6.00
2019-02-09T21:26:30.931Z,6.00
2019-02-09T21:29:02.778Z,5.90
2019-02-09T21:31:30.422Z,5.90
2019-02-09T21:33:57.679Z,5.80
2019-02-09T21:36:24.906Z,6.00
2019-02-09T21:38:52.906Z,5.90
2019-02-09T21:41:20.062Z,5.70
2019-02-09T21:43:47.638Z,5.70
2019-02-09T21:46:15.365Z,5.90
2019-02-09T21:48:43.198Z,5.90
2019-02-09T21:51:11.064Z,5.80
2019-02-09T21:53:38.327Z,5.80
2019-02-09T21:56:05.608Z,5.80
2019-02-09T21:58:32.957Z,5.70
2019-02-09T22:01:00.729Z,5.50
2019-02-09T22:03:28.143Z,5.60
2019-02-09T22:05:55.761Z,5.70
2019-02-09T22:08:23.036Z,5.80
2019-02-09T22:10:50.681Z,5.90
2019-02-09T22:13:18.439Z,5.80
2019-02-09T22:15:45.653Z,5.80
2019-02-09T22:18:13.134Z,5.80
2019-02-09T22:20:41.103Z,5.70
2019-02-09T22:23:08.461Z,5.70
2019-02-09T22:25:35.716Z,5.80
2019-02-09T22:28:04.113Z,5.70
2019-02-09T22:30:31.956Z,5.70
2019-02-09T22:33:00.021Z,5.60
2019-02-09T22:35:27.903Z,5.90
2019-02-09T22:37:56.181Z,5.90
2019-02-09T22:40:26.783Z,5.90
2019-02-09T22:42:54.722Z,6.00
2019-02-09T22:45:22.371Z,6.00
2019-02-09T22:47:50.348Z,6.10
2019-02-09T22:50:30.590Z,6.00
2019-02-09T22:52:58.089Z,5.90
2019-02-09T22:55:26.408Z,5.90
2019-02-09T22:57:54.194Z,5.80
2019-02-09T23:01:01.519Z,5.90
2019-02-09T23:03:55.756Z,5.80
2019-02-09T23:07:01.555Z,5.70
2019-02-09T23:09:31.291Z,5.60
2019-02-09T23:11:59.420Z,5.60
2019-02-09T23:14:27.200Z,5.50
2019-02-09T23:16:54.550Z,5.60
2019-02-09T23:19:22.217Z,5.50
2019-02-09T23:21:49.640Z,5.50
2019-02-09T23:24:16.872Z,5.50
2019-02-09T23:26:44.437Z,5.50
2019-02-09T23:29:11.702Z,5.60
2019-02-09T23:31:39.218Z,5.50
2019-02-09T23:34:07.070Z,5.40
2019-02-09T23:36:34.578Z,5.50
2019-02-09T23:39:03.893Z,5.40
2019-02-09T23:41:31.389Z,5.40
2019-02-09T23:43:58.820Z,5.60
2019-02-09T23:46:26.572Z,5.60
2019-02-09T23:48:53.825Z,5.50
2019-02-09T23:51:21.694Z,5.50
2019-02-09T23:53:49.087Z,5.50
2019-02-09T23:56:16.680Z,5.50
2019-02-09T23:58:44.673Z,5.60
